Terminal Aerodrome Forecast
Issued by NWS

Home | Current Version | Previous Version | Text Only | Print | Product List | Glossary On
Versions: 1 2 3 4 5 6 7 8 9 10 11 12 13 14 15 16 17 18 19 20 21 22 23 24 25 26 27 28 29 30 31 32 33 34 35 36 37 38 39 40 41 42 43 44 45 46 47 48 49 50
000
FTUS43 KDMX 191526 AAE
TAFFOD
TAF AMD
KFOD 191526Z 1915/2012 VRB04KT 6SM BR VCSH SCT010 BKN013
     FM191700 30012KT 5SM -SHRA SCT015 OVC025
     FM191800 30012G16KT 5SM RA BKN015
     FM200200 33010KT P6SM SCT020 OVC100=

USA.gov is the U.S. government's official web portal to all federal, state and local government web resources and services.